createdAt,value
2018-12-20T00:02:28.586Z,22.23
2018-12-20T00:05:09.677Z,23.03
2018-12-20T00:07:47.316Z,18.47
2018-12-20T00:10:26.225Z,20.93
2018-12-20T00:13:02.186Z,21.33
2018-12-20T00:15:34.907Z,24.20
2018-12-20T00:18:08.031Z,20.33
2018-12-20T00:20:49.457Z,25.93
2018-12-20T00:23:22.100Z,21.13
2018-12-20T00:25:54.940Z,21.33
2018-12-20T00:28:40.354Z,22.17
2018-12-20T00:31:15.107Z,19.50
2018-12-20T00:33:50.043Z,21.17
2018-12-20T00:36:28.943Z,24.57
2018-12-20T00:39:06.817Z,21.30
2018-12-20T00:41:42.248Z,24.23
2018-12-20T00:44:17.795Z,22.30
2018-12-20T00:46:53.472Z,24.30
2018-12-20T00:49:32.407Z,20.60
2018-12-20T00:52:13.942Z,21.83
2018-12-20T00:54:48.753Z,23.10
2018-12-20T00:57:19.374Z,22.17
2018-12-20T01:02:43.681Z,21.23
2018-12-20T01:05:19.294Z,22.73
2018-12-20T01:08:01.644Z,20.27
2018-12-20T01:10:34.448Z,22.07
2018-12-20T01:13:09.727Z,24.60
2018-12-20T01:15:54.712Z,21.90
2018-12-20T01:18:30.500Z,24.20
2018-12-20T01:21:00.952Z,20.37
2018-12-20T01:23:37.511Z,22.80
2018-12-20T01:26:13.440Z,22.97
2018-12-20T01:28:49.232Z,20.50
2018-12-20T01:31:24.944Z,21.60
2018-12-20T01:34:05.935Z,21.60
2018-12-20T01:36:51.626Z,21.80
2018-12-20T01:39:28.354Z,25.97
2018-12-20T01:42:09.549Z,22.20
2018-12-20T01:44:53.215Z,22.33
2018-12-20T01:50:25.931Z,27.83
2018-12-20T01:53:07.057Z,25.90
2018-12-20T01:55:41.510Z,21.53
2018-12-20T01:58:20.869Z,28.07
2018-12-20T02:01:04.084Z,25.20
2018-12-20T02:03:40.935Z,21.37
2018-12-20T02:06:16.824Z,21.90
2018-12-20T02:08:52.117Z,23.93
2018-12-20T02:11:29.194Z,23.60
2018-12-20T02:14:05.089Z,20.50
2018-12-20T02:16:38.885Z,23.03
2018-12-20T02:19:18.419Z,23.87
2018-12-20T02:22:00.650Z,25.33
2018-12-20T02:27:14.428Z,25.13
2018-12-20T02:29:49.217Z,26.00
2018-12-20T02:32:28.262Z,24.87
2018-12-20T02:35:04.071Z,25.37
2018-12-20T02:37:37.535Z,24.30
2018-12-20T02:40:12.760Z,25.73
2018-12-20T02:42:45.510Z,19.50
2018-12-20T02:45:28.586Z,22.37
2018-12-20T02:48:03.496Z,20.50
2018-12-20T02:50:36.133Z,21.53
2018-12-20T02:53:11.899Z,22.03
2018-12-20T02:55:42.994Z,20.10
2018-12-20T02:58:14.443Z,24.73
2018-12-20T03:00:51.816Z,25.30
2018-12-20T03:03:25.472Z,23.53
2018-12-20T03:06:01.167Z,23.63
2018-12-20T03:08:34.770Z,23.57
2018-12-20T03:11:09.919Z,22.77
2018-12-20T03:13:44.804Z,23.80
2018-12-20T03:24:56.940Z,25.27
2018-12-20T03:27:33.698Z,26.53
2018-12-20T03:33:06.469Z,23.17
2018-12-20T03:35:36.942Z,23.63
2018-12-20T03:38:12.530Z,23.87
2018-12-20T03:40:54.857Z,25.03
2018-12-20T03:43:28.439Z,24.13
2018-12-20T03:46:03.757Z,25.87
2018-12-20T03:48:37.339Z,30.40
2018-12-20T03:51:14.495Z,25.73
2018-12-20T03:53:49.647Z,22.27
2018-12-20T03:56:24.508Z,21.77
2018-12-20T03:58:59.245Z,23.57
2018-12-20T04:01:32.029Z,22.10
2018-12-20T04:04:07.359Z,22.00
2018-12-20T04:06:38.055Z,22.27
2018-12-20T04:09:15.313Z,22.73
2018-12-20T04:11:50.461Z,21.00
2018-12-20T04:14:25.441Z,24.37
2018-12-20T04:17:01.905Z,22.40
2018-12-20T04:19:37.460Z,23.70
2018-12-20T04:22:16.474Z,20.13
2018-12-20T04:24:55.812Z,25.47
2018-12-20T04:27:34.941Z,24.77
2018-12-20T04:30:09.703Z,24.17
2018-12-20T04:35:13.355Z,21.30
2018-12-20T04:37:44.320Z,23.20
2018-12-20T04:40:17.004Z,28.63
2018-12-20T04:42:52.379Z,21.20
2018-12-20T04:45:35.197Z,22.67
2018-12-20T04:48:15.017Z,25.23
2018-12-20T04:51:00.094Z,21.70
2018-12-20T04:53:43.228Z,26.73
2018-12-20T04:56:16.463Z,22.87
2018-12-20T04:58:47.326Z,23.30
2018-12-20T05:01:23.010Z,24.13
2018-12-20T05:04:04.665Z,22.23
2018-12-20T05:06:39.795Z,23.80
2018-12-20T05:09:15.487Z,24.87
2018-12-20T05:11:48.269Z,22.63
2018-12-20T05:14:31.622Z,26.40
2018-12-20T05:17:07.524Z,25.20
2018-12-20T05:19:42.640Z,26.40
2018-12-20T05:22:15.551Z,29.07
2018-12-20T05:24:50.340Z,26.23
2018-12-20T05:27:25.418Z,25.07
2018-12-20T05:30:02.610Z,28.73
2018-12-20T05:32:45.654Z,23.60
2018-12-20T05:35:19.106Z,28.00
2018-12-20T05:40:27.537Z,28.63
2018-12-20T05:43:06.926Z,27.67
2018-12-20T05:45:42.459Z,31.10
2018-12-20T05:48:12.966Z,29.60
2018-12-20T05:50:48.562Z,24.20
2018-12-20T05:53:23.575Z,28.47
2018-12-20T05:55:57.133Z,28.57
2018-12-20T05:58:40.533Z,25.13
2018-12-20T06:01:15.953Z,25.20
2018-12-20T06:03:46.824Z,30.50
2018-12-20T06:06:19.513Z,24.60
2018-12-20T06:08:54.651Z,32.10
2018-12-20T06:11:29.553Z,32.57
2018-12-20T06:17:18.141Z,27.87
2018-12-20T06:20:00.860Z,29.07
2018-12-20T06:22:36.587Z,24.73
2018-12-20T06:25:17.431Z,27.67
2018-12-20T06:27:56.140Z,25.37
2018-12-20T06:30:35.099Z,24.70
2018-12-20T06:33:16.169Z,26.77
2018-12-20T06:35:46.747Z,26.90
2018-12-20T06:38:22.435Z,28.03
2018-12-20T06:40:57.906Z,30.27
2018-12-20T06:43:33.048Z,30.27
2018-12-20T06:46:07.939Z,30.50
2018-12-20T06:48:46.806Z,29.07
2018-12-20T06:51:19.560Z,28.30
2018-12-20T06:53:54.607Z,26.20
2018-12-20T06:59:21.828Z,27.13
2018-12-20T07:02:00.803Z,24.20
2018-12-20T07:04:42.046Z,20.63
2018-12-20T07:07:17.182Z,20.70
2018-12-20T07:09:53.030Z,15.00
2018-12-20T07:12:23.687Z,15.17
2018-12-20T07:14:53.668Z,15.47
2018-12-20T07:17:29.104Z,11.80
2018-12-20T07:20:10.055Z,11.70
2018-12-20T07:22:48.744Z,9.87
2018-12-20T07:25:23.624Z,9.20
2018-12-20T07:27:58.432Z,13.83
2018-12-20T07:30:33.307Z,17.17
2018-12-20T07:33:09.665Z,10.00
2018-12-20T07:35:43.358Z,9.17
2018-12-20T07:38:19.186Z,5.67
2018-12-20T07:43:29.807Z,8.10
2018-12-20T07:46:12.649Z,6.07
2018-12-20T07:48:53.402Z,6.43
2018-12-20T07:54:21.304Z,6.93
2018-12-20T07:56:56.800Z,6.70
2018-12-20T07:59:35.591Z,7.40
2018-12-20T08:02:10.724Z,5.83
2018-12-20T08:04:45.802Z,7.37
2018-12-20T08:07:21.248Z,6.30
2018-12-20T08:09:56.812Z,6.57
2018-12-20T08:12:27.536Z,7.43
2018-12-20T08:15:04.616Z,6.47
2018-12-20T08:17:39.712Z,6.33
2018-12-20T08:20:14.729Z,5.57
2018-12-20T08:22:49.764Z,6.13
2018-12-20T08:25:24.516Z,6.40
2018-12-20T08:27:59.427Z,6.47
2018-12-20T08:30:34.371Z,7.10
2018-12-20T08:33:15.209Z,6.40
2018-12-20T08:35:45.860Z,6.00
2018-12-20T08:38:21.011Z,6.40
2018-12-20T08:41:01.933Z,8.40
2018-12-20T08:43:38.288Z,9.37
2018-12-20T08:46:08.553Z,6.17
2018-12-20T08:48:45.988Z,13.67
2018-12-20T08:51:22.031Z,5.30
2018-12-20T08:53:52.307Z,8.87
2018-12-20T08:56:34.668Z,5.37
2018-12-20T08:59:10.175Z,4.70
2018-12-20T09:01:45.209Z,4.67
2018-12-20T09:07:07.023Z,4.60
2018-12-20T09:09:42.091Z,4.03
2018-12-20T09:15:24.656Z,4.70
2018-12-20T09:20:51.683Z,6.87
2018-12-20T09:23:28.349Z,4.27
2018-12-20T09:26:03.622Z,4.73
2018-12-20T09:28:36.561Z,4.70
2018-12-20T09:31:11.420Z,3.67
2018-12-20T09:33:52.321Z,4.97
2018-12-20T09:36:24.804Z,5.60
2018-12-20T09:38:55.892Z,5.17
2018-12-20T09:41:28.977Z,6.30
2018-12-20T09:44:04.120Z,5.93
2018-12-20T09:54:14.295Z,6.53
2018-12-20T09:56:49.491Z,3.43
2018-12-20T09:59:24.199Z,4.73
2018-12-20T10:02:05.351Z,3.80
2018-12-20T10:04:36.219Z,5.93
2018-12-20T10:07:11.369Z,4.40
2018-12-20T10:09:46.187Z,3.07
2018-12-20T10:12:25.164Z,5.17
2018-12-20T10:14:55.859Z,6.60
2018-12-20T10:17:29.072Z,5.03
2018-12-20T10:20:14.241Z,4.53
2018-12-20T10:22:46.888Z,5.83
2018-12-20T10:25:23.954Z,4.63
2018-12-20T10:27:56.696Z,3.03
2018-12-20T10:30:32.987Z,9.63
2018-12-20T10:33:03.496Z,4.33
2018-12-20T10:35:34.469Z,3.80
2018-12-20T10:38:07.424Z,3.20
2018-12-20T10:40:48.573Z,6.07
2018-12-20T10:43:33.678Z,5.13
2018-12-20T10:46:06.265Z,8.37
2018-12-20T10:48:37.440Z,8.73
2018-12-20T10:51:12.876Z,9.53
2018-12-20T10:53:53.776Z,9.63
2018-12-20T10:59:01.620Z,6.63
2018-12-20T11:01:41.795Z,6.13
2018-12-20T11:04:22.513Z,6.03
2018-12-20T11:06:59.128Z,3.60
2018-12-20T11:09:43.109Z,5.97
2018-12-20T11:12:23.813Z,6.00
2018-12-20T11:14:59.427Z,4.73
2018-12-20T11:17:37.525Z,4.67
2018-12-20T11:20:08.331Z,4.03
2018-12-20T11:22:49.482Z,5.47
2018-12-20T11:25:24.392Z,2.93
2018-12-20T11:28:01.769Z,5.30
2018-12-20T11:30:38.571Z,3.87
2018-12-20T11:33:19.746Z,4.50
2018-12-20T11:35:56.051Z,4.63
2018-12-20T11:38:31.924Z,4.13
2018-12-20T11:41:04.701Z,11.10
2018-12-20T11:43:37.487Z,3.67
2018-12-20T11:46:13.017Z,8.53
2018-12-20T11:48:48.474Z,4.87
2018-12-20T11:51:24.590Z,5.63
2018-12-20T11:53:55.063Z,6.30
2018-12-20T11:56:28.048Z,4.47
2018-12-20T11:58:59.026Z,2.40
2018-12-20T12:01:34.338Z,5.57
2018-12-20T12:04:09.190Z,4.07
2018-12-20T12:06:39.903Z,5.97
2018-12-20T12:09:21.073Z,4.63
2018-12-20T12:11:55.938Z,4.77
2018-12-20T12:14:32.749Z,4.10
2018-12-20T12:17:03.511Z,3.73
2018-12-20T12:19:40.570Z,4.20
2018-12-20T12:22:11.384Z,7.03
2018-12-20T12:24:50.252Z,4.57
2018-12-20T12:27:23.163Z,4.80
2018-12-20T12:29:58.537Z,6.90
2018-12-20T12:32:34.247Z,6.40
2018-12-20T12:35:13.290Z,3.97
2018-12-20T12:37:48.391Z,6.23
2018-12-20T12:40:23.566Z,3.23
2018-12-20T12:42:57.363Z,4.73
2018-12-20T12:45:30.187Z,4.57
2018-12-20T12:48:04.054Z,4.33
2018-12-20T12:50:37.551Z,3.20
2018-12-20T12:53:12.904Z,4.77
2018-12-20T12:55:48.044Z,4.10
2018-12-20T12:58:23.315Z,4.53
2018-12-20T13:00:58.152Z,9.03
2018-12-20T13:03:41.186Z,2.33
2018-12-20T13:06:23.095Z,4.37
2018-12-20T13:09:00.678Z,5.43
2018-12-20T13:11:37.639Z,6.33
2018-12-20T13:14:12.729Z,4.17
2018-12-20T13:16:44.427Z,4.13
2018-12-20T13:19:20.237Z,4.37
2018-12-20T13:21:53.155Z,4.53
2018-12-20T13:24:28.833Z,5.10
2018-12-20T13:26:59.455Z,2.30
2018-12-20T13:29:34.872Z,2.60
2018-12-20T13:32:09.729Z,2.00
2018-12-20T13:34:45.728Z,2.43
2018-12-20T13:37:18.375Z,3.17
2018-12-20T13:39:55.484Z,2.70
2018-12-20T13:45:25.806Z,5.20
2018-12-20T13:48:00.943Z,2.27
2018-12-20T13:50:35.952Z,7.93
2018-12-20T13:53:10.683Z,2.17
2018-12-20T13:55:45.917Z,2.33
2018-12-20T13:58:16.334Z,2.40
2018-12-20T14:00:57.637Z,2.00
2018-12-20T14:03:29.278Z,2.20
2018-12-20T14:06:04.028Z,1.87
2018-12-20T14:08:35.246Z,1.27
2018-12-20T14:11:07.973Z,1.70
2018-12-20T14:13:42.943Z,1.33
2018-12-20T14:16:17.996Z,1.23
2018-12-20T14:18:52.826Z,1.67
2018-12-20T14:21:27.676Z,1.80
2018-12-20T14:24:06.352Z,2.60
2018-12-20T14:26:43.119Z,4.53
2018-12-20T14:29:22.064Z,2.77
2018-12-20T14:31:57.205Z,4.57
2018-12-20T14:34:33.292Z,3.73
2018-12-20T14:40:12.800Z,2.47
2018-12-20T14:42:54.283Z,1.83
2018-12-20T14:45:36.353Z,4.10
2018-12-20T14:48:16.178Z,3.80
2018-12-20T14:51:16.214Z,2.73
2018-12-20T14:53:54.143Z,5.63
2018-12-20T14:56:32.980Z,2.73
2018-12-20T14:59:11.723Z,3.30
2018-12-20T15:01:48.812Z,4.60
2018-12-20T15:04:24.046Z,2.23
2018-12-20T15:06:59.740Z,4.17
2018-12-20T15:09:38.940Z,1.70
2018-12-20T15:12:14.576Z,1.97
2018-12-20T15:14:49.688Z,3.10
2018-12-20T15:17:30.493Z,2.70
2018-12-20T15:20:01.347Z,1.57
2018-12-20T15:22:42.370Z,2.60
2018-12-20T15:25:23.246Z,3.00
2018-12-20T15:28:01.938Z,5.73
2018-12-20T15:30:36.922Z,4.47
2018-12-20T15:33:09.491Z,5.23
2018-12-20T15:35:40.768Z,4.57
2018-12-20T15:38:13.663Z,4.30
2018-12-20T15:40:55.188Z,3.33
2018-12-20T15:43:30.102Z,2.33
2018-12-20T15:46:09.236Z,3.62
2018-12-20T15:48:44.456Z,2.87
2018-12-20T15:51:19.203Z,3.77
2018-12-20T15:56:59.251Z,4.37
2018-12-20T16:02:21.851Z,2.47
2018-12-20T16:07:44.376Z,5.97
2018-12-20T16:10:19.268Z,2.63
2018-12-20T16:12:52.195Z,4.83
2018-12-20T16:15:29.551Z,2.90
2018-12-20T16:20:51.679Z,4.30
2018-12-20T16:23:32.668Z,6.73
2018-12-20T16:26:11.419Z,6.17
2018-12-20T16:28:46.335Z,2.03
2018-12-20T16:31:17.156Z,3.07
2018-12-20T16:33:52.800Z,4.92
2018-12-20T16:36:27.711Z,8.70
2018-12-20T16:39:04.767Z,5.93
2018-12-20T16:41:39.539Z,3.70
2018-12-20T16:44:14.443Z,2.73
2018-12-20T16:47:02.116Z,5.23
2018-12-20T16:49:33.513Z,3.67
2018-12-20T16:52:10.805Z,6.37
2018-12-20T16:54:45.727Z,4.60
2018-12-20T16:57:20.628Z,2.93
2018-12-20T16:59:56.484Z,3.27
2018-12-20T17:02:31.675Z,2.37
2018-12-20T17:05:12.738Z,4.17
2018-12-20T17:07:48.606Z,5.43
2018-12-20T17:10:23.635Z,2.90
2018-12-20T17:12:58.727Z,1.87
2018-12-20T17:15:36.574Z,4.73
2018-12-20T17:18:11.704Z,4.50
2018-12-20T17:23:54.444Z,5.37
2018-12-20T17:26:29.292Z,5.40
2018-12-20T17:29:10.171Z,3.70
2018-12-20T17:31:49.035Z,6.73
2018-12-20T17:34:24.644Z,5.40
2018-12-20T17:36:59.601Z,3.10
2018-12-20T17:39:40.367Z,4.00
2018-12-20T17:42:15.283Z,3.70
2018-12-20T17:44:52.720Z,4.77
2018-12-20T17:47:28.819Z,7.03
2018-12-20T17:50:01.775Z,2.70
2018-12-20T17:52:42.970Z,5.37
2018-12-20T17:55:27.943Z,2.97
2018-12-20T17:58:06.857Z,8.53
2018-12-20T18:00:40.313Z,3.47
2018-12-20T18:03:15.676Z,2.57
2018-12-20T18:05:59.089Z,5.93
2018-12-20T18:08:40.981Z,5.93
2018-12-20T18:11:22.240Z,8.27
2018-12-20T18:14:03.396Z,3.43
2018-12-20T18:16:40.379Z,4.10
2018-12-20T18:19:15.396Z,2.50
2018-12-20T18:21:56.718Z,4.40
2018-12-20T18:24:31.547Z,7.33
2018-12-20T18:27:04.304Z,3.80
2018-12-20T18:29:35.645Z,2.50
2018-12-20T18:32:12.635Z,5.27
2018-12-20T18:34:58.907Z,3.77
2018-12-20T18:37:38.849Z,3.63
2018-12-20T18:40:12.115Z,2.13
2018-12-20T18:42:47.592Z,3.50
2018-12-20T18:45:19.398Z,3.30
2018-12-20T18:47:54.977Z,7.97
2018-12-20T18:50:30.112Z,3.03
2018-12-20T18:53:16.278Z,4.33
2018-12-20T18:55:49.787Z,4.40
2018-12-20T18:58:20.203Z,4.03
2018-12-20T19:00:56.947Z,8.03
2018-12-20T19:03:35.904Z,2.40
2018-12-20T19:06:07.758Z,5.07
2018-12-20T19:08:45.210Z,5.33
2018-12-20T19:11:19.112Z,2.57
2018-12-20T19:14:00.593Z,3.37
2018-12-20T19:16:33.107Z,4.33
2018-12-20T19:19:08.861Z,8.70
2018-12-20T19:21:45.179Z,7.33
2018-12-20T19:24:18.247Z,13.10
2018-12-20T19:26:54.205Z,5.73
2018-12-20T19:29:30.348Z,5.60
2018-12-20T19:32:06.454Z,4.00
2018-12-20T19:34:46.371Z,5.00
2018-12-20T19:37:21.943Z,6.63
2018-12-20T19:40:02.106Z,4.03
2018-12-20T19:42:38.277Z,5.90
2018-12-20T19:45:13.679Z,9.73
2018-12-20T19:47:54.081Z,4.87
2018-12-20T19:50:38.290Z,2.73
2018-12-20T19:53:24.344Z,3.10
2018-12-20T19:56:00.039Z,3.97
2018-12-20T19:58:36.148Z,3.87
2018-12-20T20:01:18.304Z,4.10
2018-12-20T20:03:54.368Z,8.33
2018-12-20T20:06:46.631Z,6.10
2018-12-20T20:09:25.425Z,6.63
2018-12-20T20:12:01.348Z,6.10
2018-12-20T20:14:38.400Z,4.87
2018-12-20T20:17:12.351Z,5.17
2018-12-20T20:19:48.088Z,5.77
2018-12-20T20:22:34.561Z,6.70
2018-12-20T20:25:16.304Z,5.80
2018-12-20T20:27:52.960Z,5.53
2018-12-20T20:30:25.015Z,4.10
2018-12-20T20:33:01.169Z,3.30
2018-12-20T20:35:44.760Z,8.30
2018-12-20T20:38:24.830Z,8.30
2018-12-20T20:40:56.654Z,11.83
2018-12-20T20:43:32.925Z,5.70
2018-12-20T20:46:08.948Z,5.93
2018-12-20T20:48:59.075Z,6.80
2018-12-20T20:51:38.541Z,6.20
2018-12-20T20:54:14.033Z,2.80
2018-12-20T20:56:54.175Z,4.60
2018-12-20T20:59:30.270Z,2.13
2018-12-20T21:02:10.448Z,4.00
2018-12-20T21:04:52.850Z,6.60
2018-12-20T21:07:28.729Z,4.00
2018-12-20T21:10:06.822Z,2.67
2018-12-20T21:12:50.430Z,7.97
2018-12-20T21:15:26.354Z,3.37
2018-12-20T21:18:14.423Z,29.60
2018-12-20T21:20:50.416Z,3.17
2018-12-20T21:23:36.284Z,7.00
2018-12-20T21:26:22.979Z,4.20
2018-12-20T21:29:06.526Z,4.23
2018-12-20T21:31:47.406Z,3.43
2018-12-20T21:34:31.325Z,2.60
2018-12-20T21:37:11.328Z,4.57
2018-12-20T21:39:50.309Z,2.13
2018-12-20T21:42:24.208Z,6.37
2018-12-20T21:44:59.776Z,5.30
2018-12-20T21:47:42.128Z,4.00
2018-12-20T21:50:22.087Z,1.70
2018-12-20T21:52:58.139Z,5.23
2018-12-20T21:55:40.294Z,2.43
2018-12-20T21:58:15.990Z,2.83
2018-12-20T22:00:56.209Z,4.03
2018-12-20T22:03:34.371Z,7.13
2018-12-20T22:06:11.477Z,2.00
2018-12-20T22:08:59.495Z,7.67
2018-12-20T22:11:37.127Z,5.57
2018-12-20T22:14:10.531Z,2.17
2018-12-20T22:16:44.452Z,3.40
2018-12-20T22:19:32.130Z,4.20
2018-12-20T22:22:16.488Z,4.67
2018-12-20T22:30:02.557Z,3.87
2018-12-20T22:32:46.631Z,4.80
2018-12-20T22:35:21.285Z,4.80
2018-12-20T22:37:57.400Z,4.57
2018-12-20T22:40:36.572Z,4.50
2018-12-20T22:43:10.451Z,2.70
2018-12-20T22:45:44.630Z,5.00
2018-12-20T22:48:25.011Z,3.93
2018-12-20T22:51:08.972Z,2.37
2018-12-20T22:53:56.709Z,4.80
2018-12-20T22:56:32.409Z,5.90
2018-12-20T22:59:09.467Z,2.57
2018-12-20T23:01:47.983Z,2.67
2018-12-20T23:04:24.811Z,2.93
2018-12-20T23:07:04.418Z,3.40
2018-12-20T23:09:40.556Z,3.40
2018-12-20T23:12:19.130Z,5.60
2018-12-20T23:14:52.853Z,4.50
2018-12-20T23:17:28.602Z,3.83
2018-12-20T23:20:05.032Z,3.97
2018-12-20T23:22:44.581Z,2.23
2018-12-20T23:25:29.125Z,4.87
2018-12-20T23:28:06.836Z,4.73
2018-12-20T23:30:51.218Z,3.43
2018-12-20T23:33:38.072Z,6.10
2018-12-20T23:36:17.923Z,6.43
2018-12-20T23:38:55.405Z,3.20
2018-12-20T23:41:29.240Z,5.67
2018-12-20T23:44:10.876Z,4.83
2018-12-20T23:46:42.453Z,4.50
2018-12-20T23:49:22.996Z,2.50
2018-12-20T23:51:59.096Z,3.03
2018-12-20T23:54:36.112Z,4.27
2018-12-20T23:57:13.260Z,3.87
2018-12-20T23:59:55.616Z,8.03
